Time;durP1;ratioP1;P1;durP2;ratioP2;P2;SDS_P1;SDS_P2;PMS_P1;PMS_P2;Temp;Humidity;BMP_temperature;BMP_pressure;BME280_temperature;BME280_humidity;BME280_pressure;Samples;Min_cycle;Max_cycle;Signal;HPM_P1;HPM_P2
2022/03/06 00:01:09;;;;;;;15.50;8.98;;;;;7.90;102244.00;;;;5048358;28;20191;-81
2022/03/06 00:03:36;;;;;;;14.80;9.23;;;;;7.90;102244.00;;;;5049979;28;20204;-80
2022/03/06 00:06:05;;;;;;;14.30;8.70;;;;;7.80;102235.00;;;;5052796;28;20578;-81
2022/03/06 00:08:32;;;;;;;17.63;9.63;;;;;7.80;102250.00;;;;5063999;28;20226;-81
2022/03/06 00:10:59;;;;;;;18.77;9.55;;;;;7.80;102254.00;;;;5060962;28;20782;-80
2022/03/06 00:13:27;;;;;;;18.20;10.02;;;;;7.80;102252.00;;;;5049135;28;20204;-81
2022/03/06 00:15:54;;;;;;;16.42;9.75;;;;;7.70;102256.00;;;;5048899;28;20223;-80
2022/03/06 00:18:21;;;;;;;16.52;9.38;;;;;7.70;102249.00;;;;5048392;28;20681;-80
2022/03/06 00:20:49;;;;;;;16.95;10.05;;;;;7.70;102245.00;;;;5048581;28;20196;-80
2022/03/06 00:23:18;;;;;;;15.63;9.30;;;;;7.70;102242.00;;;;5048843;28;20592;-80
2022/03/06 00:25:45;;;;;;;17.33;9.43;;;;;7.70;102256.00;;;;5048126;28;20200;-81
2022/03/06 00:28:12;;;;;;;15.63;9.55;;;;;7.60;102251.00;;;;5048212;28;20561;-81
2022/03/06 00:30:40;;;;;;;17.65;9.70;;;;;7.60;102254.00;;;;5047978;28;20211;-80
2022/03/06 00:33:07;;;;;;;15.63;9.38;;;;;7.60;102257.00;;;;5047300;28;20217;-80
2022/03/06 00:35:35;;;;;;;17.50;9.48;;;;;7.60;102256.00;;;;5048030;28;20228;-80
2022/03/06 00:38:03;;;;;;;17.35;9.82;;;;;7.50;102258.00;;;;5047823;28;20218;-81
2022/03/06 00:40:31;;;;;;;16.33;9.23;;;;;7.50;102262.00;;;;5047529;28;20287;-80
2022/03/06 00:42:59;;;;;;;13.98;8.63;;;;;7.50;102257.00;;;;5047541;28;20592;-81
2022/03/06 00:45:26;;;;;;;14.18;8.80;;;;;7.50;102258.00;;;;5047876;28;20196;-80
2022/03/06 00:47:53;;;;;;;19.17;10.05;;;;;7.40;102259.00;;;;5048117;28;20234;-81
2022/03/06 00:50:21;;;;;;;16.55;9.73;;;;;7.40;102259.00;;;;5047674;28;20203;-81
2022/03/06 00:52:48;;;;;;;16.55;9.13;;;;;7.40;102260.00;;;;5047466;28;20670;-81
2022/03/06 00:55:15;;;;;;;16.23;9.50;;;;;7.30;102257.00;;;;5047299;28;20227;-80
2022/03/06 00:57:44;;;;;;;16.60;8.90;;;;;7.30;102269.00;;;;5048364;28;20207;-81
2022/03/06 01:00:12;;;;;;;16.30;9.55;;;;;7.30;102268.00;;;;5048023;28;20207;-79
2022/03/06 01:02:39;;;;;;;15.60;9.07;;;;;7.30;102278.00;;;;5047798;28;20199;-79
2022/03/06 01:05:07;;;;;;;14.57;8.77;;;;;7.20;102280.00;;;;5047116;28;20670;-79
2022/03/06 01:07:34;;;;;;;15.38;8.50;;;;;7.20;102285.00;;;;5048000;28;20681;-80
2022/03/06 01:10:02;;;;;;;15.73;10.45;;;;;7.20;102277.00;;;;5047305;28;20704;-80
2022/03/06 01:12:29;;;;;;;16.02;9.52;;;;;7.20;102273.00;;;;5051407;28;20218;-79
2022/03/06 01:14:57;;;;;;;17.35;9.25;;;;;7.10;102280.00;;;;5056858;28;20629;-80
2022/03/06 01:17:25;;;;;;;16.60;9.40;;;;;7.10;102286.00;;;;5047141;28;20199;-80
2022/03/06 01:19:52;;;;;;;17.15;9.13;;;;;7.10;102288.00;;;;5048671;28;20280;-79
2022/03/06 01:22:19;;;;;;;15.50;9.63;;;;;7.10;102293.00;;;;5051576;28;20210;-80
2022/03/06 01:24:47;;;;;;;17.30;9.68;;;;;7.10;102288.00;;;;5051051;28;20256;-79
2022/03/06 01:27:14;;;;;;;14.68;8.40;;;;;7.00;102296.00;;;;5050857;28;20677;-79
2022/03/06 01:29:41;;;;;;;17.13;8.75;;;;;7.00;102293.00;;;;5051684;28;20210;-79
2022/03/06 01:32:10;;;;;;;17.67;8.85;;;;;7.00;102297.00;;;;5051276;28;20223;-80
2022/03/06 01:34:37;;;;;;;14.80;9.00;;;;;7.00;102295.00;;;;5051746;28;20211;-80
2022/03/06 01:37:04;;;;;;;14.75;8.43;;;;;7.00;102290.00;;;;5051246;28;20778;-78
2022/03/06 01:39:32;;;;;;;15.90;8.85;;;;;6.90;102296.00;;;;5050874;28;20592;-79
2022/03/06 01:41:59;;;;;;;13.73;8.05;;;;;6.90;102291.00;;;;5051154;28;20199;-79
2022/03/06 01:44:27;;;;;;;16.67;8.88;;;;;6.90;102301.00;;;;5051621;28;20202;-80
2022/03/06 01:46:54;;;;;;;16.85;9.80;;;;;6.90;102300.00;;;;5050904;28;20204;-80
2022/03/06 01:49:23;;;;;;;14.68;8.80;;;;;6.90;102301.00;;;;5050302;28;20212;-80
2022/03/06 01:51:50;;;;;;;14.65;8.52;;;;;6.90;102305.00;;;;5050952;28;20207;-80
2022/03/06 01:54:17;;;;;;;19.58;10.38;;;;;6.80;102310.00;;;;5051127;28;20714;-79
2022/03/06 01:56:45;;;;;;;14.70;8.95;;;;;6.80;102310.00;;;;5050512;28;20269;-80
2022/03/06 01:59:12;;;;;;;13.13;7.70;;;;;6.80;102310.00;;;;5050514;28;20234;-80
2022/03/06 02:01:39;;;;;;;16.17;9.50;;;;;6.80;102317.00;;;;5051394;28;20696;-80
2022/03/06 02:04:06;;;;;;;13.90;8.98;;;;;6.80;102311.00;;;;5050617;28;20678;-80
2022/03/06 02:06:37;;;;;;;14.98;9.00;;;;;6.70;102324.00;;;;5050144;28;20199;-80
2022/03/06 02:09:04;;;;;;;10.93;7.03;;;;;6.70;102316.00;;;;5050439;28;20226;-79
2022/03/06 02:11:31;;;;;;;14.00;8.07;;;;;6.70;102316.00;;;;5050545;28;20200;-79
2022/03/06 02:14:02;;;;;;;13.85;7.68;;;;;6.70;102319.00;;;;5050011;28;20874;-80
2022/03/06 02:16:32;;;;;;;15.35;8.27;;;;;6.70;102320.00;;;;5049884;28;20613;-80
2022/03/06 02:18:59;;;;;;;12.20;7.22;;;;;6.70;102326.00;;;;5050368;28;20231;-80
2022/03/06 02:21:27;;;;;;;13.02;6.35;;;;;6.70;102323.00;;;;5050477;28;20218;-80
2022/03/06 02:23:55;;;;;;;10.43;6.55;;;;;6.70;102324.00;;;;5043108;28;20205;-80
2022/03/06 02:26:22;;;;;;;11.02;7.00;;;;;6.70;102320.00;;;;5070169;28;20665;-80
2022/03/06 02:28:49;;;;;;;9.32;6.63;;;;;6.70;102325.00;;;;5069880;28;20199;-80
2022/03/06 02:31:17;;;;;;;10.73;6.55;;;;;6.70;102322.00;;;;5070088;28;20203;-79
2022/03/06 02:33:44;;;;;;;12.20;7.68;;;;;6.70;102322.00;;;;5070647;28;20202;-79
2022/03/06 02:36:11;;;;;;;11.10;7.45;;;;;6.70;102328.00;;;;5070391;28;20237;-80
2022/03/06 02:38:40;;;;;;;12.38;6.75;;;;;6.60;102318.00;;;;5069981;28;20194;-79
2022/03/06 02:41:07;;;;;;;9.10;6.25;;;;;6.60;102317.00;;;;5049759;28;20200;-80
2022/03/06 02:43:34;;;;;;;11.80;6.75;;;;;6.60;102316.00;;;;5050599;28;20553;-79
2022/03/06 02:46:01;;;;;;;10.60;5.45;;;;;6.60;102316.00;;;;5050460;28;20215;-80
2022/03/06 02:48:29;;;;;;;9.43;5.78;;;;;6.60;102322.00;;;;5049575;28;20666;-79
2022/03/06 02:50:56;;;;;;;11.15;6.45;;;;;6.60;102315.00;;;;5049481;28;20200;-80
2022/03/06 02:53:23;;;;;;;10.68;6.40;;;;;6.60;102315.00;;;;5049976;28;20223;-80
2022/03/06 02:55:52;;;;;;;10.32;6.43;;;;;6.60;102313.00;;;;5049329;28;20220;-80
2022/03/06 02:58:20;;;;;;;8.35;5.07;;;;;6.60;102311.00;;;;5050214;28;20618;-80
2022/03/06 03:00:47;;;;;;;10.18;6.53;;;;;6.60;102311.00;;;;5050378;28;20219;-80
2022/03/06 03:03:14;;;;;;;9.63;5.97;;;;;6.60;102305.00;;;;5049394;28;20207;-80
2022/03/06 03:05:41;;;;;;;9.55;6.03;;;;;6.60;102310.00;;;;5050730;28;20234;-79
2022/03/06 03:08:09;;;;;;;9.13;5.72;;;;;6.60;102311.00;;;;5050062;28;20203;-79
2022/03/06 03:10:36;;;;;;;8.50;5.55;;;;;6.60;102318.00;;;;5048814;28;20200;-79
2022/03/06 03:13:05;;;;;;;9.55;6.05;;;;;6.50;102318.00;;;;5033344;28;20211;-79
2022/03/06 03:15:32;;;;;;;9.07;5.75;;;;;6.50;102316.00;;;;5050400;28;20234;-79
2022/03/06 03:17:59;;;;;;;10.35;6.05;;;;;6.50;102314.00;;;;5049854;28;20204;-79
2022/03/06 03:20:27;;;;;;;9.05;5.93;;;;;6.50;102308.00;;;;5049785;28;20269;-79
2022/03/06 03:22:54;;;;;;;9.95;6.57;;;;;6.50;102311.00;;;;5050016;28;20814;-79
2022/03/06 03:25:21;;;;;;;8.68;5.60;;;;;6.50;102310.00;;;;5049680;28;20200;-80
2022/03/06 03:27:48;;;;;;;8.88;5.57;;;;;6.50;102314.00;;;;5050196;28;20204;-79
2022/03/06 03:30:17;;;;;;;10.13;6.55;;;;;6.50;102305.00;;;;5049872;28;20211;-79
2022/03/06 03:32:44;;;;;;;8.45;5.47;;;;;6.50;102308.00;;;;5053944;28;20221;-80
2022/03/06 03:35:11;;;;;;;8.55;5.63;;;;;6.50;102307.00;;;;5056698;28;20191;-79
2022/03/06 03:37:39;;;;;;;8.43;5.78;;;;;6.50;102316.00;;;;5050028;28;20203;-80
2022/03/06 03:40:08;;;;;;;9.82;5.65;;;;;6.50;102317.00;;;;5048929;28;20202;-80
2022/03/06 03:42:38;;;;;;;8.43;5.68;;;;;6.50;102319.00;;;;5048804;28;20206;-80
2022/03/06 03:45:06;;;;;;;9.45;5.68;;;;;6.40;102312.00;;;;5048836;28;20211;-80
2022/03/06 03:47:35;;;;;;;9.55;5.60;;;;;6.40;102312.00;;;;5050012;28;20254;-80
2022/03/06 03:50:03;;;;;;;8.90;6.18;;;;;6.40;102322.00;;;;5048993;28;20214;-79
2022/03/06 03:52:30;;;;;;;9.07;6.00;;;;;6.40;102318.00;;;;5049780;28;20615;-80
2022/03/06 03:54:57;;;;;;;13.65;6.53;;;;;6.40;102314.00;;;;5049263;28;20215;-79
2022/03/06 03:57:25;;;;;;;8.85;6.00;;;;;6.40;102317.00;;;;5049524;28;20227;-79
2022/03/06 03:59:52;;;;;;;10.18;6.07;;;;;6.30;102313.00;;;;5049144;28;20662;-80
2022/03/06 04:02:20;;;;;;;9.23;6.05;;;;;6.40;102320.00;;;;5048577;28;20622;-80
2022/03/06 04:04:49;;;;;;;9.80;6.82;;;;;6.30;102324.00;;;;5049214;28;20203;-81
2022/03/06 04:07:17;;;;;;;9.80;6.55;;;;;6.30;102327.00;;;;5049453;28;20200;-80
2022/03/06 04:09:44;;;;;;;9.82;6.03;;;;;6.30;102338.00;;;;5049226;28;20199;-79
2022/03/06 04:12:11;;;;;;;10.68;6.65;;;;;6.30;102332.00;;;;5048043;28;20203;-80
2022/03/06 04:14:38;;;;;;;9.50;6.68;;;;;6.30;102331.00;;;;5049035;28;20203;-80
2022/03/06 04:17:06;;;;;;;9.68;6.28;;;;;6.30;102333.00;;;;5048250;28;20223;-79
2022/03/06 04:19:33;;;;;;;9.07;6.28;;;;;6.30;102327.00;;;;5049015;28;20239;-80
2022/03/06 04:22:02;;;;;;;8.68;5.82;;;;;6.20;102336.00;;;;5048106;28;20749;-80
2022/03/06 04:24:29;;;;;;;8.60;6.20;;;;;6.20;102334.00;;;;5049030;28;20203;-80
2022/03/06 04:26:56;;;;;;;8.73;6.05;;;;;6.20;102339.00;;;;5047245;28;20253;-79
2022/03/06 04:29:23;;;;;;;9.60;6.53;;;;;6.20;102334.00;;;;5048645;28;20215;-80
2022/03/06 04:31:51;;;;;;;11.35;7.35;;;;;6.20;102342.00;;;;5048294;28;20579;-80
2022/03/06 04:34:18;;;;;;;8.57;6.38;;;;;6.20;102342.00;;;;5048267;28;20669;-80
2022/03/06 04:36:45;;;;;;;8.57;6.03;;;;;6.20;102346.00;;;;5049135;28;20227;-80
2022/03/06 04:39:14;;;;;;;10.23;6.72;;;;;6.20;102345.00;;;;5048404;28;20208;-80
2022/03/06 04:41:41;;;;;;;9.73;6.60;;;;;6.20;102347.00;;;;5048814;28;20214;-80
2022/03/06 04:44:08;;;;;;;10.07;6.47;;;;;6.20;102349.00;;;;5052013;28;20201;-80
2022/03/06 04:46:36;;;;;;;9.75;6.80;;;;;6.20;102356.00;;;;5056520;28;20290;-80
2022/03/06 04:49:03;;;;;;;10.73;7.20;;;;;6.10;102361.00;;;;5048038;28;20203;-80
2022/03/06 04:51:31;;;;;;;9.30;6.65;;;;;6.10;102357.00;;;;5049069;28;20299;-80
2022/03/06 04:53:58;;;;;;;9.95;7.25;;;;;6.10;102367.00;;;;5047816;28;20220;-80
2022/03/06 04:56:26;;;;;;;9.35;6.68;;;;;6.10;102366.00;;;;5048013;28;20231;-80
2022/03/06 04:58:54;;;;;;;10.05;7.03;;;;;6.10;102357.00;;;;5048940;28;20207;-80
2022/03/06 05:01:21;;;;;;;9.68;6.72;;;;;6.10;102370.00;;;;5047589;28;20257;-80
2022/03/06 05:03:48;;;;;;;11.18;7.60;;;;;6.10;102383.00;;;;5047819;28;20195;-80
2022/03/06 05:06:15;;;;;;;9.88;6.70;;;;;6.00;102383.00;;;;5048698;28;20199;-81
2022/03/06 05:08:42;;;;;;;9.63;7.13;;;;;6.10;102375.00;;;;5048521;28;20203;-81
2022/03/06 05:11:10;;;;;;;11.52;7.47;;;;;6.00;102381.00;;;;5043564;28;20196;-81
2022/03/06 05:13:39;;;;;;;12.90;7.43;;;;;6.00;102375.00;;;;5044304;28;20207;-80
2022/03/06 05:16:06;;;;;;;9.80;7.03;;;;;6.00;102382.00;;;;5047392;28;20242;-81
2022/03/06 05:18:33;;;;;;;10.70;7.32;;;;;6.00;102386.00;;;;5047684;28;20195;-81
2022/03/06 05:21:01;;;;;;;10.68;8.23;;;;;6.00;102378.00;;;;5048016;28;20207;-80
2022/03/06 05:23:28;;;;;;;10.30;6.90;;;;;6.00;102389.00;;;;5048036;28;20210;-80
2022/03/06 05:25:55;;;;;;;9.93;6.47;;;;;6.00;102393.00;;;;5047830;28;20670;-81
2022/03/06 05:28:23;;;;;;;10.43;6.93;;;;;6.00;102401.00;;;;5048108;28;20210;-81
2022/03/06 05:30:51;;;;;;;10.50;7.10;;;;;6.00;102399.00;;;;5047719;28;20298;-81
2022/03/06 05:33:19;;;;;;;10.45;7.05;;;;;6.00;102396.00;;;;5047976;28;20221;-81
2022/03/06 05:35:47;;;;;;;10.43;7.15;;;;;6.00;102408.00;;;;5047391;28;20681;-81
2022/03/06 05:38:14;;;;;;;9.40;6.97;;;;;6.00;102407.00;;;;5047961;28;20669;-81
2022/03/06 05:40:42;;;;;;;8.68;6.35;;;;;6.00;102408.00;;;;5047697;28;20215;-81
2022/03/06 05:43:09;;;;;;;10.73;7.35;;;;;5.90;102415.00;;;;5047874;28;20238;-80
2022/03/06 05:45:36;;;;;;;9.52;7.45;;;;;5.90;102412.00;;;;5047604;28;20200;-80
2022/03/06 05:48:05;;;;;;;10.95;7.47;;;;;5.90;102418.00;;;;5047180;28;20219;-81
2022/03/06 05:50:32;;;;;;;10.75;7.03;;;;;5.90;102424.00;;;;5048789;28;20203;-81
2022/03/06 05:53:00;;;;;;;10.10;7.38;;;;;5.90;102432.00;;;;5058654;28;20249;-78
2022/03/06 05:55:29;;;;;;;11.15;7.38;;;;;5.90;102429.00;;;;5047491;28;20207;-81
2022/03/06 05:57:56;;;;;;;10.40;6.90;;;;;5.90;102423.00;;;;5047833;28;20223;-81
2022/03/06 06:00:23;;;;;;;10.18;7.35;;;;;5.90;102433.00;;;;5048080;28;20196;-81
2022/03/06 06:02:50;;;;;;;13.35;7.88;;;;;5.90;102436.00;;;;5047814;28;20669;-81
2022/03/06 06:05:19;;;;;;;10.15;7.72;;;;;5.80;102431.00;;;;5047928;28;20206;-81
2022/03/06 06:07:47;;;;;;;12.07;8.13;;;;;5.90;102442.00;;;;5050786;28;20257;-80
2022/03/06 06:10:14;;;;;;;11.82;7.43;;;;;5.90;102448.00;;;;5051603;28;20231;-81
2022/03/06 06:12:41;;;;;;;9.05;6.70;;;;;5.80;102449.00;;;;5050600;28;20207;-80
2022/03/06 06:15:10;;;;;;;12.20;7.95;;;;;5.80;102445.00;;;;5051281;28;20192;-81
2022/03/06 06:17:37;;;;;;;9.70;7.32;;;;;5.90;102450.00;;;;5050512;28;20721;-81
2022/03/06 06:20:07;;;;;;;9.88;7.13;;;;;5.90;102451.00;;;;5050577;28;20517;-80
2022/03/06 06:22:36;;;;;;;10.73;7.53;;;;;5.90;102449.00;;;;5051545;28;20199;-80
2022/03/06 06:25:05;;;;;;;11.18;8.02;;;;;5.90;102446.00;;;;5051078;28;20208;-81
2022/03/06 06:27:32;;;;;;;10.93;7.80;;;;;5.80;102448.00;;;;5051064;28;20633;-81
2022/03/06 06:30:00;;;;;;;9.85;7.25;;;;;5.80;102452.00;;;;5050060;28;20693;-81
2022/03/06 06:32:27;;;;;;;11.18;7.90;;;;;5.90;102449.00;;;;5049572;28;20669;-81
2022/03/06 06:34:54;;;;;;;12.10;7.78;;;;;5.80;102450.00;;;;5050399;28;20210;-81
2022/03/06 06:37:21;;;;;;;10.20;7.47;;;;;5.90;102452.00;;;;5049924;28;20709;-80
2022/03/06 06:39:50;;;;;;;11.45;8.05;;;;;5.80;102454.00;;;;5049413;28;20679;-81
2022/03/06 06:42:17;;;;;;;11.07;7.63;;;;;5.90;102458.00;;;;5050095;28;20300;-81
2022/03/06 06:44:44;;;;;;;10.77;7.25;;;;;5.90;102464.00;;;;5050064;28;20747;-81
2022/03/06 06:47:12;;;;;;;9.95;7.82;;;;;5.90;102471.00;;;;5049935;28;20203;-81
2022/03/06 06:49:39;;;;;;;10.55;6.82;;;;;5.90;102471.00;;;;5050500;28;20211;-81
2022/03/06 06:52:06;;;;;;;9.80;6.80;;;;;5.90;102475.00;;;;5049283;28;20207;-81
2022/03/06 06:54:33;;;;;;;10.23;6.80;;;;;5.90;102479.00;;;;5049353;28;20639;-80
2022/03/06 06:57:02;;;;;;;10.60;7.28;;;;;5.90;102476.00;;;;5050056;28;20276;-80
2022/03/06 06:59:29;;;;;;;9.57;5.97;;;;;5.90;102487.00;;;;5052269;28;20222;-80
2022/03/06 07:01:57;;;;;;;9.77;6.03;;;;;6.00;102490.00;;;;5059137;28;20603;-81
2022/03/06 07:04:24;;;;;;;11.02;7.05;;;;;6.00;102491.00;;;;5050019;28;20211;-80
2022/03/06 07:06:51;;;;;;;9.35;6.30;;;;;6.00;102497.00;;;;5049212;28;20196;-80
2022/03/06 07:09:18;;;;;;;8.77;6.85;;;;;6.00;102504.00;;;;5049617;28;20211;-81
2022/03/06 07:11:45;;;;;;;9.02;6.22;;;;;6.10;102497.00;;;;5042557;28;20204;-81
2022/03/06 07:14:14;;;;;;;9.95;6.32;;;;;6.10;102503.00;;;;5029593;28;20201;-80
2022/03/06 07:16:42;;;;;;;11.00;7.07;;;;;6.20;102509.00;;;;5028786;28;20757;-81
2022/03/06 07:19:09;;;;;;;9.07;7.25;;;;;6.20;102513.00;;;;5028452;28;20318;-81
2022/03/06 07:21:37;;;;;;;9.95;6.75;;;;;6.20;102520.00;;;;5029564;28;20581;-79
2022/03/06 07:24:05;;;;;;;9.85;7.15;;;;;6.20;102525.00;;;;5028974;28;20288;-81
2022/03/06 07:26:32;;;;;;;9.27;6.50;;;;;6.30;102524.00;;;;5040483;28;20677;-81
2022/03/06 07:28:59;;;;;;;13.43;7.65;;;;;6.30;102535.00;;;;5041307;28;20212;-80
2022/03/06 07:31:28;;;;;;;9.57;6.65;;;;;6.30;102535.00;;;;5029906;28;20227;-81
2022/03/06 07:33:55;;;;;;;9.80;6.65;;;;;6.40;102530.00;;;;5029265;28;20585;-80
2022/03/06 07:36:22;;;;;;;8.32;6.38;;;;;6.40;102540.00;;;;5029385;28;20208;-81
2022/03/06 07:38:49;;;;;;;7.78;6.10;;;;;6.50;102543.00;;;;5028771;28;20235;-80
2022/03/06 07:41:17;;;;;;;8.23;6.78;;;;;6.50;102550.00;;;;5029166;28;20590;-80
2022/03/06 07:43:44;;;;;;;8.43;6.43;;;;;6.60;102554.00;;;;5029139;28;20275;-81
2022/03/06 07:46:12;;;;;;;7.25;6.03;;;;;6.60;102549.00;;;;5041486;28;20207;-81
2022/03/06 07:48:40;;;;;;;8.00;5.95;;;;;6.60;102545.00;;;;5048777;28;20212;-81
2022/03/06 07:51:08;;;;;;;7.35;5.75;;;;;6.70;102546.00;;;;5048381;28;20661;-81
2022/03/06 07:53:35;;;;;;;6.88;5.53;;;;;6.80;102553.00;;;;5048857;28;20703;-81
2022/03/06 07:56:03;;;;;;;8.68;6.57;;;;;6.80;102564.00;;;;5048363;28;20273;-80
2022/03/06 07:58:30;;;;;;;6.40;5.68;;;;;6.90;102564.00;;;;5048415;28;20469;-80
2022/03/06 08:00:57;;;;;;;8.63;5.82;;;;;6.90;102567.00;;;;5048469;28;20195;-79
2022/03/06 08:03:25;;;;;;;8.30;5.53;;;;;7.00;102569.00;;;;5048476;28;20215;-79
2022/03/06 08:05:53;;;;;;;9.05;5.32;;;;;7.00;102562.00;;;;5051927;28;20199;-79
2022/03/06 08:08:22;;;;;;;8.15;5.82;;;;;7.10;102574.00;;;;5062339;28;20675;-80
2022/03/06 08:10:49;;;;;;;7.72;5.45;;;;;7.10;102569.00;;;;5068608;28;20573;-80
2022/03/06 08:13:16;;;;;;;7.22;5.80;;;;;7.20;102582.00;;;;5048695;28;20207;-80
2022/03/06 08:15:44;;;;;;;7.80;5.45;;;;;7.20;102580.00;;;;5047816;28;20203;-80
2022/03/06 08:18:11;;;;;;;7.88;5.78;;;;;7.30;102572.00;;;;5047858;28;20239;-80
2022/03/06 08:20:38;;;;;;;7.28;5.63;;;;;7.30;102575.00;;;;5048265;28;20243;-80
2022/03/06 08:23:07;;;;;;;6.60;5.20;;;;;7.40;102573.00;;;;5047531;28;21273;-80
2022/03/06 08:25:34;;;;;;;6.25;5.15;;;;;7.40;102578.00;;;;5048571;28;20199;-80
2022/03/06 08:28:01;;;;;;;8.07;5.43;;;;;7.50;102595.00;;;;5048099;28;20226;-79
2022/03/06 08:30:28;;;;;;;7.32;5.90;;;;;7.60;102583.00;;;;5048018;28;20199;-80
2022/03/06 08:32:55;;;;;;;7.07;5.50;;;;;7.70;102582.00;;;;5047642;28;20199;-80
2022/03/06 08:35:23;;;;;;;6.55;5.18;;;;;7.70;102583.00;;;;5048512;28;20199;-80
2022/03/06 08:37:50;;;;;;;7.28;4.70;;;;;7.80;102580.00;;;;5048255;28;20223;-79
2022/03/06 08:40:18;;;;;;;7.50;4.53;;;;;7.90;102587.00;;;;5047843;28;20502;-79
2022/03/06 08:42:47;;;;;;;10.38;5.03;;;;;7.90;102585.00;;;;5047937;28;20195;-79
2022/03/06 08:45:14;;;;;;;7.57;5.65;;;;;8.00;102590.00;;;;5047680;28;20298;-79
2022/03/06 08:47:41;;;;;;;6.85;5.07;;;;;8.10;102592.00;;;;5048194;28;20222;-80
2022/03/06 08:50:09;;;;;;;5.65;4.43;;;;;8.20;102586.00;;;;5047694;28;20614;-80
2022/03/06 08:52:37;;;;;;;5.45;4.45;;;;;8.30;102586.00;;;;5048515;28;20211;-80
2022/03/06 08:55:05;;;;;;;6.10;4.50;;;;;8.40;102590.00;;;;5047228;28;20223;-80
2022/03/06 08:57:33;;;;;;;5.40;4.10;;;;;8.40;102588.00;;;;5048557;28;20273;-80
2022/03/06 09:00:01;;;;;;;6.13;3.90;;;;;8.50;102602.00;;;;5048121;28;20203;-80
2022/03/06 09:02:28;;;;;;;7.10;3.58;;;;;8.60;102591.00;;;;5048266;28;20687;-80
2022/03/06 09:04:55;;;;;;;4.40;3.50;;;;;8.70;102603.00;;;;5047648;28;20282;-80
2022/03/06 09:07:23;;;;;;;4.63;3.47;;;;;8.80;102591.00;;;;5048216;28;20648;-80
2022/03/06 09:09:50;;;;;;;4.28;3.65;;;;;8.90;102594.00;;;;5047310;28;20231;-79
2022/03/06 09:12:19;;;;;;;7.00;3.80;;;;;8.90;102595.00;;;;5049634;28;20195;-80
2022/03/06 09:14:48;;;;;;;5.03;3.60;;;;;9.00;102600.00;;;;5061080;28;20249;-80
2022/03/06 09:17:15;;;;;;;5.28;3.40;;;;;9.10;102604.00;;;;5066957;28;20210;-80
2022/03/06 09:19:42;;;;;;;5.32;3.65;;;;;9.10;102593.00;;;;5067552;28;20776;-79
2022/03/06 09:22:09;;;;;;;3.72;3.30;;;;;9.20;102595.00;;;;5067538;28;20210;-79
2022/03/06 09:24:37;;;;;;;4.18;3.20;;;;;9.20;102590.00;;;;5066322;28;20187;-78
2022/03/06 09:27:05;;;;;;;4.93;3.42;;;;;9.30;102593.00;;;;5047522;28;20293;-79
2022/03/06 09:29:32;;;;;;;4.28;2.97;;;;;9.30;102593.00;;;;5047767;28;20207;-80
2022/03/06 09:32:00;;;;;;;4.78;3.47;;;;;9.40;102605.00;;;;5047203;28;20755;-79
2022/03/06 09:34:28;;;;;;;5.22;3.35;;;;;9.50;102601.00;;;;5047627;28;20207;-80
2022/03/06 09:36:55;;;;;;;4.78;3.03;;;;;9.60;102596.00;;;;5047074;28;20208;-80
2022/03/06 09:39:22;;;;;;;3.28;2.53;;;;;9.70;102588.00;;;;5047052;28;20226;-79
2022/03/06 09:41:50;;;;;;;5.03;3.47;;;;;9.70;102600.00;;;;5050560;28;20203;-79
2022/03/06 09:44:17;;;;;;;4.53;3.03;;;;;9.80;102602.00;;;;5051529;28;21066;-79
2022/03/06 09:46:45;;;;;;;2.97;2.55;;;;;9.90;102588.00;;;;5051104;28;20199;-79
2022/03/06 09:49:13;;;;;;;3.65;2.85;;;;;10.00;102596.00;;;;5051535;28;20199;-79
2022/03/06 09:51:42;;;;;;;3.35;2.60;;;;;10.10;102590.00;;;;5051849;28;20202;-79
2022/03/06 09:54:11;;;;;;;3.25;2.95;;;;;10.20;102603.00;;;;5051819;28;20223;-79
2022/03/06 09:56:38;;;;;;;4.28;3.15;;;;;10.30;102601.00;;;;5051499;28;20207;-80
2022/03/06 09:59:06;;;;;;;4.28;3.28;;;;;10.30;102597.00;;;;5050887;28;20234;-79
2022/03/06 10:01:33;;;;;;;3.83;2.92;;;;;10.40;102592.00;;;;5051628;28;20211;-79
2022/03/06 10:04:24;;;;;;;4.20;2.78;;;;;10.40;102600.00;;;;5051186;28;20206;-79
2022/03/06 10:07:02;;;;;;;3.88;2.72;;;;;10.50;102594.00;;;;5051546;28;20199;-79
2022/03/06 10:09:30;;;;;;;3.92;2.80;;;;;10.60;102591.00;;;;5051093;28;20195;-79
2022/03/06 10:11:58;;;;;;;3.70;2.60;;;;;10.70;102594.00;;;;5050853;28;20198;-79
2022/03/06 10:14:39;;;;;;;3.60;2.78;;;;;10.70;102585.00;;;;5051186;28;20313;-79
2022/03/06 10:17:13;;;;;;;3.72;2.72;;;;;10.80;102597.00;;;;5051163;28;20235;-80
2022/03/06 10:19:51;;;;;;;3.45;2.58;;;;;10.80;102586.00;;;;5050294;28;20282;-80
2022/03/06 10:22:19;;;;;;;5.43;3.13;;;;;10.90;102586.00;;;;5051049;28;20199;-80
2022/03/06 10:24:47;;;;;;;6.25;2.97;;;;;11.00;102598.00;;;;5063164;28;20199;-80
2022/03/06 10:27:15;;;;;;;4.35;3.00;;;;;11.10;102595.00;;;;5051525;28;20211;-80
2022/03/06 10:29:42;;;;;;;3.08;2.78;;;;;11.10;102586.00;;;;5051052;28;20208;-80
2022/03/06 10:32:10;;;;;;;2.50;2.25;;;;;11.20;102600.00;;;;5050655;28;20281;-80
2022/03/06 10:34:38;;;;;;;4.78;3.10;;;;;11.30;102601.00;;;;5051092;28;20192;-80
2022/03/06 10:37:12;;;;;;;4.38;3.40;;;;;11.40;102597.00;;;;5050386;28;20208;-80
2022/03/06 10:39:48;;;;;;;5.53;3.42;;;;;11.40;102599.00;;;;5050717;28;20227;-80
2022/03/06 10:42:22;;;;;;;3.10;2.53;;;;;11.50;102597.00;;;;5050947;28;20284;-80
2022/03/06 10:44:49;;;;;;;4.47;3.53;;;;;11.70;102609.00;;;;5050740;28;20199;-80
2022/03/06 10:47:17;;;;;;;5.03;3.38;;;;;11.70;102610.00;;;;5050073;28;20684;-80
2022/03/06 10:50:00;;;;;;;6.55;3.75;;;;;11.70;102607.00;;;;5051267;28;20203;-80
2022/03/06 10:52:28;;;;;;;4.30;2.80;;;;;11.90;102612.00;;;;5050613;28;20535;-80
2022/03/06 10:54:57;;;;;;;3.85;3.45;;;;;12.00;102601.00;;;;5049966;28;20219;-80
2022/03/06 10:57:26;;;;;;;4.00;3.17;;;;;12.00;102611.00;;;;5050840;28;20200;-80
2022/03/06 10:59:54;;;;;;;4.45;3.22;;;;;12.10;102599.00;;;;5050299;28;20235;-80
2022/03/06 11:02:24;;;;;;;3.83;3.38;;;;;12.20;102591.00;;;;5050287;28;20250;-80
2022/03/06 11:04:53;;;;;;;4.00;3.00;;;;;12.20;102599.00;;;;5050843;28;20205;-81
2022/03/06 11:07:21;;;;;;;3.60;2.97;;;;;12.30;102594.00;;;;5050558;28;20624;-80
2022/03/06 11:09:51;;;;;;;3.97;3.60;;;;;12.40;102613.00;;;;5049506;28;20207;-80
2022/03/06 11:12:20;;;;;;;3.63;2.95;;;;;12.40;102608.00;;;;5041402;28;20200;-80
2022/03/06 11:14:48;;;;;;;5.40;3.47;;;;;12.50;102605.00;;;;5030383;28;20206;-80
2022/03/06 11:17:17;;;;;;;4.45;3.47;;;;;12.50;102607.00;;;;5029591;28;20204;-80
2022/03/06 11:19:44;;;;;;;4.57;3.47;;;;;12.60;102618.00;;;;5030379;28;20441;-80
2022/03/06 11:22:19;;;;;;;4.38;3.25;;;;;12.60;102609.00;;;;5029350;28;20730;-80
2022/03/06 11:24:52;;;;;;;4.75;3.50;;;;;12.70;102611.00;;;;5030103;28;20204;-81
2022/03/06 11:27:40;;;;;;;4.75;3.17;;;;;12.70;102615.00;;;;5043471;28;20298;-81
2022/03/06 11:30:18;;;;;;;4.50;3.10;;;;;12.80;102618.00;;;;5049676;28;20207;-80
2022/03/06 11:32:47;;;;;;;4.38;3.53;;;;;12.90;102611.00;;;;5054718;28;20194;-80
2022/03/06 11:35:19;;;;;;;4.05;3.33;;;;;12.90;102615.00;;;;5056317;28;20203;-80
2022/03/06 11:37:52;;;;;;;5.68;3.90;;;;;13.00;102613.00;;;;5049542;28;20204;-80
2022/03/06 11:40:45;;;;;;;4.20;3.60;;;;;13.00;102602.00;;;;5049838;28;20580;-80
2022/03/06 11:43:31;;;;;;;5.28;4.18;;;;;13.10;102603.00;;;;5049132;28;20243;-80
2022/03/06 11:46:06;;;;;;;5.13;3.58;;;;;13.10;102607.00;;;;5049401;28;20699;-80
2022/03/06 11:49:10;;;;;;;5.13;3.92;;;;;13.10;102598.00;;;;5049361;28;20203;-80
2022/03/06 11:51:45;;;;;;;5.25;4.00;;;;;13.20;102596.00;;;;5049013;28;20226;-81
2022/03/06 11:54:17;;;;;;;6.30;4.07;;;;;13.30;102588.00;;;;5049605;28;20314;-81
2022/03/06 11:56:54;;;;;;;6.45;4.05;;;;;13.30;102592.00;;;;5049646;28;20207;-80
2022/03/06 11:59:46;;;;;;;4.18;3.40;;;;;13.30;102591.00;;;;5048960;28;20219;-80
2022/03/06 12:02:21;;;;;;;5.05;4.05;;;;;13.40;102584.00;;;;5029203;28;20204;-80
2022/03/06 12:04:54;;;;;;;3.85;3.20;;;;;13.50;102579.00;;;;5028952;28;20204;-79
2022/03/06 12:07:21;;;;;;;3.70;3.30;;;;;13.60;102586.00;;;;5036716;28;20195;-80
2022/03/06 12:09:53;;;;;;;8.20;3.35;;;;;13.70;102578.00;;;;5049539;28;20284;-80
2022/03/06 12:12:22;;;;;;;4.13;3.33;;;;;13.70;102573.00;;;;5048256;28;20203;-80
2022/03/06 12:14:52;;;;;;;4.85;2.92;;;;;13.70;102570.00;;;;5048816;28;20204;-80
2022/03/06 12:17:32;;;;;;;3.60;3.10;;;;;13.70;102571.00;;;;5048678;28;20203;-80